Time;durP1;ratioP1;P1;durP2;ratioP2;P2;SDS_P1;SDS_P2;PMS_P1;PMS_P2;Temp;Humidity;BMP_temperature;BMP_pressure;BME280_temperature;BME280_humidity;BME280_pressure;Samples;Min_cycle;Max_cycle;Signal;HPM_P1;HPM_P2
2024/03/02 00:01:47;;;;;;;38.47;24.80;;;;;;;;;;4993122;28;20506;-78
2024/03/02 00:04:12;;;;;;;36.35;23.35;;;;;;;;;;4991982;28;20399;-79
2024/03/02 00:06:37;;;;;;;32.80;22.38;;;;;;;;;;4993467;28;20034;-78
2024/03/02 00:09:03;;;;;;;40.40;24.15;;;;;;;;;;4995859;28;20066;-79
2024/03/02 00:11:28;;;;;;;40.72;24.58;;;;;;;;;;4992910;28;20423;-78
2024/03/02 00:13:53;;;;;;;33.17;20.45;;;;;;;;;;4993442;28;20515;-78
2024/03/02 00:16:19;;;;;;;36.90;21.77;;;;;;;;;;4993723;28;20026;-79
2024/03/02 00:18:45;;;;;;;31.55;22.08;;;;;;;;;;4996435;28;20030;-79
2024/03/02 00:21:10;;;;;;;33.03;20.60;;;;;;;;;;4992759;28;20030;-79
2024/03/02 00:23:36;;;;;;;35.35;22.73;;;;;;;;;;4993181;28;20040;-78
2024/03/02 00:26:01;;;;;;;34.60;22.35;;;;;;;;;;4991113;28;20079;-79
2024/03/02 00:28:28;;;;;;;42.45;26.05;;;;;;;;;;4993506;28;20487;-79
2024/03/02 00:31:02;;;;;;;38.28;25.02;;;;;;;;;;4991601;28;20042;-78
2024/03/02 00:33:29;;;;;;;38.20;23.38;;;;;;;;;;4994877;28;20030;-79
2024/03/02 00:35:55;;;;;;;38.72;24.08;;;;;;;;;;4992320;28;20116;-78
2024/03/02 00:38:20;;;;;;;37.72;24.15;;;;;;;;;;5003099;28;20058;-79
2024/03/02 00:40:46;;;;;;;34.83;22.33;;;;;;;;;;4992485;28;20034;-78
2024/03/02 00:43:31;;;;;;;35.63;23.40;;;;;;;;;;4990933;28;20038;-78
2024/03/02 00:45:57;;;;;;;36.20;21.65;;;;;;;;;;4987950;28;20578;-79
2024/03/02 00:48:22;;;;;;;36.33;23.65;;;;;;;;;;4991133;28;20117;-78
2024/03/02 00:50:51;;;;;;;31.90;20.27;;;;;;;;;;4995109;28;20589;-78
2024/03/02 00:53:17;;;;;;;45.13;28.42;;;;;;;;;;4991108;28;20045;-78
2024/03/02 00:55:44;;;;;;;37.53;23.55;;;;;;;;;;4992427;28;20026;-78
2024/03/02 00:58:09;;;;;;;36.55;23.77;;;;;;;;;;4993569;28;20455;-79
2024/03/02 01:00:34;;;;;;;38.95;24.63;;;;;;;;;;4995757;28;20113;-78
2024/03/02 01:02:59;;;;;;;29.27;20.88;;;;;;;;;;4991986;28;20045;-78
2024/03/02 01:05:24;;;;;;;34.83;22.83;;;;;;;;;;4992536;28;20395;-79
2024/03/02 01:07:50;;;;;;;40.33;24.58;;;;;;;;;;4991163;28;20384;-78
2024/03/02 01:10:16;;;;;;;30.40;21.08;;;;;;;;;;4993005;28;20050;-78
2024/03/02 01:12:41;;;;;;;26.10;17.83;;;;;;;;;;4994228;28;20092;-78
2024/03/02 01:15:07;;;;;;;30.35;19.13;;;;;;;;;;4991201;28;20575;-78
2024/03/02 01:17:33;;;;;;;28.17;18.95;;;;;;;;;;4992284;28;20097;-78
2024/03/02 01:19:58;;;;;;;29.23;19.33;;;;;;;;;;4993132;28;20117;-78
2024/03/02 01:22:25;;;;;;;26.50;18.25;;;;;;;;;;4991416;28;20113;-79
2024/03/02 01:24:50;;;;;;;34.03;22.77;;;;;;;;;;4991991;28;20030;-78
2024/03/02 01:27:15;;;;;;;29.27;18.52;;;;;;;;;;4991901;28;20029;-78
2024/03/02 01:29:41;;;;;;;33.30;22.17;;;;;;;;;;4993953;28;20069;-78
2024/03/02 01:32:06;;;;;;;33.47;22.05;;;;;;;;;;4991303;28;20045;-78
2024/03/02 01:34:31;;;;;;;25.95;18.67;;;;;;;;;;4991628;28;20038;-78
2024/03/02 01:36:56;;;;;;;29.10;18.92;;;;;;;;;;4991742;28;20454;-78
2024/03/02 01:39:22;;;;;;;27.58;19.08;;;;;;;;;;4997805;28;20023;-78
2024/03/02 01:41:47;;;;;;;30.65;20.80;;;;;;;;;;4990120;28;20022;-78
2024/03/02 01:44:12;;;;;;;33.42;21.50;;;;;;;;;;4990050;28;20054;-78
2024/03/02 01:46:37;;;;;;;36.80;22.50;;;;;;;;;;4995287;28;20038;-79
2024/03/02 01:49:02;;;;;;;34.40;21.98;;;;;;;;;;4992044;28;20035;-78
2024/03/02 01:51:27;;;;;;;32.97;22.60;;;;;;;;;;4996775;28;20038;-79
2024/03/02 01:53:53;;;;;;;34.35;20.35;;;;;;;;;;4991060;28;20035;-79
2024/03/02 01:56:18;;;;;;;35.10;21.58;;;;;;;;;;4987760;28;20031;-79
2024/03/02 01:58:44;;;;;;;35.08;22.83;;;;;;;;;;4992678;28;20026;-79
2024/03/02 02:01:10;;;;;;;30.75;18.55;;;;;;;;;;4989589;28;20035;-79
2024/03/02 02:03:35;;;;;;;24.65;17.70;;;;;;;;;;4992930;28;20026;-78
2024/03/02 02:06:00;;;;;;;28.27;19.90;;;;;;;;;;4991367;28;20657;-78
2024/03/02 02:08:25;;;;;;;31.65;20.27;;;;;;;;;;4992807;28;20034;-79
2024/03/02 02:10:50;;;;;;;33.50;20.30;;;;;;;;;;4993726;28;20117;-78
2024/03/02 02:13:15;;;;;;;33.78;19.85;;;;;;;;;;4990535;28;20066;-79
2024/03/02 02:15:41;;;;;;;28.42;18.55;;;;;;;;;;4991091;28;20037;-78
2024/03/02 02:18:06;;;;;;;29.85;19.45;;;;;;;;;;4991077;28;20534;-79
2024/03/02 02:20:31;;;;;;;39.53;22.67;;;;;;;;;;4992093;28;20037;-78
2024/03/02 02:22:57;;;;;;;36.20;22.23;;;;;;;;;;4990588;28;20100;-78
2024/03/02 02:25:22;;;;;;;39.50;23.90;;;;;;;;;;4990947;28;20126;-78
2024/03/02 02:27:47;;;;;;;51.40;25.48;;;;;;;;;;4992507;28;20030;-79
2024/03/02 02:30:13;;;;;;;42.88;23.65;;;;;;;;;;4991063;28;20054;-79
2024/03/02 02:32:38;;;;;;;38.00;23.70;;;;;;;;;;4990629;28;20081;-79
2024/03/02 02:35:03;;;;;;;39.70;26.05;;;;;;;;;;4990884;28;20084;-78
2024/03/02 02:37:28;;;;;;;36.03;21.98;;;;;;;;;;4991043;28;20384;-78
2024/03/02 02:39:54;;;;;;;34.30;20.48;;;;;;;;;;4992230;28;20022;-79
2024/03/02 02:42:19;;;;;;;37.08;22.85;;;;;;;;;;4987844;28;20030;-78
2024/03/02 02:44:44;;;;;;;39.72;22.75;;;;;;;;;;4990896;28;20041;-78
2024/03/02 02:47:09;;;;;;;38.92;24.67;;;;;;;;;;4992255;28;20474;-79
2024/03/02 02:49:34;;;;;;;39.63;23.85;;;;;;;;;;4992780;28;20034;-79
2024/03/02 02:51:59;;;;;;;41.65;26.10;;;;;;;;;;4989081;28;20045;-78
2024/03/02 02:54:25;;;;;;;39.38;25.67;;;;;;;;;;4999917;28;20445;-78
2024/03/02 02:56:50;;;;;;;44.33;26.80;;;;;;;;;;4989599;28;20037;-80
2024/03/02 02:59:15;;;;;;;38.53;25.13;;;;;;;;;;4995284;28;20026;-78
2024/03/02 03:01:40;;;;;;;38.40;25.33;;;;;;;;;;4993183;28;20550;-79
2024/03/02 03:04:05;;;;;;;40.58;27.35;;;;;;;;;;4997090;28;20495;-79
2024/03/02 03:06:31;;;;;;;42.20;27.42;;;;;;;;;;4994747;28;20038;-79
2024/03/02 03:08:57;;;;;;;39.25;26.00;;;;;;;;;;4996907;28;20048;-80
2024/03/02 03:11:24;;;;;;;36.67;24.67;;;;;;;;;;4994138;28;20092;-79
2024/03/02 03:13:49;;;;;;;42.47;26.08;;;;;;;;;;4994188;28;20042;-78
2024/03/02 03:16:15;;;;;;;36.20;23.27;;;;;;;;;;4994448;28;20033;-79
2024/03/02 03:18:40;;;;;;;34.80;22.77;;;;;;;;;;4997124;28;20126;-78
2024/03/02 03:21:05;;;;;;;41.03;25.52;;;;;;;;;;4993900;28;20061;-79
2024/03/02 03:23:30;;;;;;;41.78;25.55;;;;;;;;;;4996256;28;20057;-78
2024/03/02 03:25:55;;;;;;;34.53;22.27;;;;;;;;;;4992637;28;20033;-79
2024/03/02 03:28:20;;;;;;;38.53;21.65;;;;;;;;;;4994346;28;20066;-79
2024/03/02 03:30:46;;;;;;;37.45;24.48;;;;;;;;;;4995517;28;20042;-79
2024/03/02 03:33:11;;;;;;;38.60;24.63;;;;;;;;;;4993676;28;20124;-79
2024/03/02 03:35:36;;;;;;;34.53;20.75;;;;;;;;;;4994002;28;20491;-78
2024/03/02 03:38:01;;;;;;;32.10;20.20;;;;;;;;;;4994025;28;20081;-79
2024/03/02 03:40:27;;;;;;;32.70;21.58;;;;;;;;;;4995250;28;20077;-80
2024/03/02 03:42:52;;;;;;;26.58;18.15;;;;;;;;;;4993693;28;20083;-78
2024/03/02 03:45:17;;;;;;;31.95;21.52;;;;;;;;;;4994252;28;20033;-78
2024/03/02 03:47:43;;;;;;;30.52;19.58;;;;;;;;;;4992680;28;20034;-79
2024/03/02 03:50:08;;;;;;;33.83;22.25;;;;;;;;;;4993908;28;20046;-78
2024/03/02 03:52:33;;;;;;;36.45;21.85;;;;;;;;;;4993404;28;20037;-79
2024/03/02 03:54:59;;;;;;;35.40;21.33;;;;;;;;;;4993571;28;20061;-78
2024/03/02 03:57:25;;;;;;;33.75;19.80;;;;;;;;;;4993717;28;20121;-79
2024/03/02 03:59:50;;;;;;;34.25;20.95;;;;;;;;;;4994635;28;20138;-78
2024/03/02 04:02:15;;;;;;;34.22;22.13;;;;;;;;;;4993075;28;20463;-79
2024/03/02 04:04:41;;;;;;;36.95;21.80;;;;;;;;;;4996917;28;20030;-79
2024/03/02 04:07:06;;;;;;;34.03;21.08;;;;;;;;;;4993513;28;20722;-78
2024/03/02 04:09:31;;;;;;;38.70;24.88;;;;;;;;;;4993710;28;20088;-79
2024/03/02 04:11:56;;;;;;;35.85;23.88;;;;;;;;;;4993482;28;20415;-78
2024/03/02 04:14:21;;;;;;;37.60;24.35;;;;;;;;;;4993126;28;20058;-79
2024/03/02 04:16:46;;;;;;;37.33;25.80;;;;;;;;;;4993539;28;20404;-79
2024/03/02 04:19:12;;;;;;;36.13;22.73;;;;;;;;;;4994876;28;20040;-79
2024/03/02 04:21:37;;;;;;;36.80;23.90;;;;;;;;;;4991826;28;20483;-78
2024/03/02 04:24:03;;;;;;;39.10;23.85;;;;;;;;;;4993011;28;20038;-79
2024/03/02 04:26:28;;;;;;;40.30;25.42;;;;;;;;;;4989351;28;20045;-78
2024/03/02 04:28:53;;;;;;;41.60;23.48;;;;;;;;;;4993358;28;20491;-79
2024/03/02 04:31:19;;;;;;;33.30;21.33;;;;;;;;;;4992609;28;20042;-78
2024/03/02 04:33:44;;;;;;;34.17;22.67;;;;;;;;;;4992951;28;20093;-79
2024/03/02 04:36:09;;;;;;;37.63;23.67;;;;;;;;;;4992956;28;20038;-78
2024/03/02 04:38:35;;;;;;;36.17;22.52;;;;;;;;;;4994078;28;20038;-79
2024/03/02 04:41:00;;;;;;;39.50;23.02;;;;;;;;;;4992624;28;20026;-78
2024/03/02 04:43:25;;;;;;;36.80;22.17;;;;;;;;;;4988422;28;20039;-78
2024/03/02 04:45:50;;;;;;;35.85;21.25;;;;;;;;;;4984267;28;20113;-78
2024/03/02 04:48:15;;;;;;;35.38;20.92;;;;;;;;;;4992711;28;20109;-79
2024/03/02 04:50:40;;;;;;;33.67;20.80;;;;;;;;;;4993752;28;20038;-78
2024/03/02 04:53:06;;;;;;;32.17;19.08;;;;;;;;;;4992277;28;20117;-79
2024/03/02 04:57:59;;;;;;;35.80;23.58;;;;;;;;;;4992404;28;20096;-78
2024/03/02 05:00:24;;;;;;;36.55;21.63;;;;;;;;;;4992732;28;20034;-78
2024/03/02 05:02:49;;;;;;;35.55;23.48;;;;;;;;;;4991074;28;20519;-78
2024/03/02 05:05:15;;;;;;;34.00;22.52;;;;;;;;;;4992226;28;20023;-79
2024/03/02 05:07:42;;;;;;;33.28;20.63;;;;;;;;;;4992836;28;20037;-79
2024/03/02 05:10:07;;;;;;;34.35;21.42;;;;;;;;;;4993855;28;20038;-78
2024/03/02 05:15:10;;;;;;;36.75;20.52;;;;;;;;;;4992083;28;20041;-78
2024/03/02 05:17:39;;;;;;;31.98;21.65;;;;;;;;;;4995030;28;20105;-78
2024/03/02 05:20:05;;;;;;;39.72;23.70;;;;;;;;;;4986279;28;20034;-79
2024/03/02 05:22:30;;;;;;;37.72;23.70;;;;;;;;;;4990810;28;20026;-79
2024/03/02 05:24:56;;;;;;;36.45;21.65;;;;;;;;;;4992159;28;20042;-78
2024/03/02 05:27:21;;;;;;;34.75;22.38;;;;;;;;;;4988828;28;20026;-79
2024/03/02 05:29:47;;;;;;;36.83;23.98;;;;;;;;;;4994084;28;20054;-79
2024/03/02 05:32:12;;;;;;;40.53;25.00;;;;;;;;;;4991343;28;20073;-78
2024/03/02 05:34:37;;;;;;;42.28;24.80;;;;;;;;;;4991649;28;20038;-78
2024/03/02 05:37:02;;;;;;;39.67;25.13;;;;;;;;;;4992209;28;20026;-79
2024/03/02 05:39:27;;;;;;;40.47;24.27;;;;;;;;;;4994931;28;20088;-78
2024/03/02 05:41:52;;;;;;;38.33;22.95;;;;;;;;;;4991445;28;20065;-79
2024/03/02 05:44:18;;;;;;;42.00;24.92;;;;;;;;;;4991581;28;20391;-78
2024/03/02 05:46:44;;;;;;;33.97;23.10;;;;;;;;;;4990508;28;20030;-79
2024/03/02 05:49:09;;;;;;;39.72;23.73;;;;;;;;;;4991999;28;20049;-79
2024/03/02 05:51:34;;;;;;;42.83;26.20;;;;;;;;;;4991222;28;20034;-79
2024/03/02 05:54:00;;;;;;;39.33;25.10;;;;;;;;;;4991300;28;20069;-79
2024/03/02 05:56:25;;;;;;;39.05;22.95;;;;;;;;;;4991611;28;20480;-78
2024/03/02 06:01:18;;;;;;;37.28;23.60;;;;;;;;;;4991925;28;20049;-79
2024/03/02 06:03:44;;;;;;;39.17;23.85;;;;;;;;;;4991429;28;20419;-79
2024/03/02 06:06:09;;;;;;;36.25;22.73;;;;;;;;;;4991345;28;20388;-79
2024/03/02 06:08:35;;;;;;;39.53;24.10;;;;;;;;;;4991512;28;20022;-79
2024/03/02 06:11:00;;;;;;;37.30;21.70;;;;;;;;;;4993381;28;20038;-78
2024/03/02 06:13:26;;;;;;;40.35;26.20;;;;;;;;;;4991322;28;20026;-79
2024/03/02 06:15:51;;;;;;;38.53;23.67;;;;;;;;;;4991193;28;20026;-78
2024/03/02 06:18:16;;;;;;;46.35;25.88;;;;;;;;;;4991603;28;21252;-78
2024/03/02 06:20:41;;;;;;;35.17;22.90;;;;;;;;;;4996033;28;20042;-79
2024/03/02 06:23:07;;;;;;;36.03;22.08;;;;;;;;;;4990217;28;20273;-78
2024/03/02 06:25:32;;;;;;;36.95;24.02;;;;;;;;;;5001823;28;20031;-79
2024/03/02 06:27:57;;;;;;;40.78;24.23;;;;;;;;;;4993102;28;20084;-79
2024/03/02 06:30:22;;;;;;;37.13;23.63;;;;;;;;;;4990960;28;20049;-79
2024/03/02 06:32:47;;;;;;;38.50;23.95;;;;;;;;;;4990289;28;20477;-79
2024/03/02 06:35:12;;;;;;;34.47;21.63;;;;;;;;;;4990968;28;20053;-78
2024/03/02 06:37:38;;;;;;;31.83;19.75;;;;;;;;;;4991110;28;20081;-79
2024/03/02 06:40:04;;;;;;;34.00;21.48;;;;;;;;;;4990503;28;20113;-78
2024/03/02 06:42:33;;;;;;;33.67;21.63;;;;;;;;;;4990702;28;20113;-80
2024/03/02 06:44:58;;;;;;;34.83;22.85;;;;;;;;;;4989885;28;20487;-80
2024/03/02 06:47:23;;;;;;;34.83;22.20;;;;;;;;;;4990947;28;20069;-79
2024/03/02 06:49:48;;;;;;;35.58;23.60;;;;;;;;;;4993040;28;20147;-78
2024/03/02 06:52:13;;;;;;;36.63;22.23;;;;;;;;;;4990260;28;20816;-79
2024/03/02 06:54:39;;;;;;;36.50;23.88;;;;;;;;;;4985658;28;20109;-79
2024/03/02 06:57:04;;;;;;;34.73;21.90;;;;;;;;;;4990807;28;20483;-79
2024/03/02 06:59:29;;;;;;;35.27;21.40;;;;;;;;;;4993661;28;20316;-78
2024/03/02 07:01:54;;;;;;;34.97;21.00;;;;;;;;;;4993428;28;20282;-78
2024/03/02 07:04:19;;;;;;;32.63;20.38;;;;;;;;;;4990835;28;20109;-80
2024/03/02 07:06:45;;;;;;;35.65;21.30;;;;;;;;;;4987004;28;20090;-79
2024/03/02 07:09:10;;;;;;;33.80;21.63;;;;;;;;;;4990800;28;20600;-79
2024/03/02 07:11:36;;;;;;;32.35;19.73;;;;;;;;;;4987686;28;20089;-79
2024/03/02 07:14:01;;;;;;;27.17;19.08;;;;;;;;;;4990376;28;20092;-78
2024/03/02 07:16:29;;;;;;;35.67;22.30;;;;;;;;;;4990739;28;20034;-79
2024/03/02 07:18:56;;;;;;;34.60;21.40;;;;;;;;;;4994437;28;20030;-79
2024/03/02 07:21:24;;;;;;;33.78;21.75;;;;;;;;;;4991019;28;20483;-79
2024/03/02 07:23:50;;;;;;;38.15;22.30;;;;;;;;;;4993490;28;20474;-78
2024/03/02 07:26:16;;;;;;;33.63;22.27;;;;;;;;;;4991289;28;20034;-79
2024/03/02 07:28:41;;;;;;;32.25;20.25;;;;;;;;;;4990742;28;20521;-79
2024/03/02 07:31:07;;;;;;;39.63;22.05;;;;;;;;;;4991873;28;20495;-79
2024/03/02 07:33:32;;;;;;;33.08;21.10;;;;;;;;;;4990698;28;20045;-80
2024/03/02 07:35:59;;;;;;;35.90;23.35;;;;;;;;;;4993870;28;20034;-79
2024/03/02 07:38:24;;;;;;;33.92;21.25;;;;;;;;;;4988890;28;20030;-79
2024/03/02 07:40:55;;;;;;;34.08;22.50;;;;;;;;;;4992506;28;20089;-79
2024/03/02 07:43:21;;;;;;;40.15;23.80;;;;;;;;;;4989874;28;20058;-79
2024/03/02 07:45:46;;;;;;;31.02;19.55;;;;;;;;;;4994410;28;20068;-80
2024/03/02 07:48:11;;;;;;;42.90;25.65;;;;;;;;;;4993946;28;20435;-78
2024/03/02 07:50:38;;;;;;;36.10;24.15;;;;;;;;;;4997846;28;20026;-79
2024/03/02 07:53:03;;;;;;;41.78;26.13;;;;;;;;;;4994425;28;20042;-79
2024/03/02 07:55:29;;;;;;;40.25;26.27;;;;;;;;;;4993718;28;20026;-79
2024/03/02 07:57:54;;;;;;;40.20;24.05;;;;;;;;;;4992736;28;20030;-79
2024/03/02 08:00:20;;;;;;;42.00;25.60;;;;;;;;;;4994440;28;20041;-78
2024/03/02 08:02:45;;;;;;;37.95;24.30;;;;;;;;;;4983572;28;20042;-79
2024/03/02 08:05:10;;;;;;;38.42;22.52;;;;;;;;;;4993384;28;20116;-80
2024/03/02 08:07:35;;;;;;;44.40;24.65;;;;;;;;;;4992541;28;20041;-78
2024/03/02 08:10:00;;;;;;;39.42;23.65;;;;;;;;;;4995425;28;20429;-78
2024/03/02 08:12:26;;;;;;;36.93;22.47;;;;;;;;;;4996231;28;20411;-79
2024/03/02 08:14:51;;;;;;;33.92;22.00;;;;;;;;;;4993073;28;20297;-78
2024/03/02 08:17:16;;;;;;;39.65;23.27;;;;;;;;;;4993369;28;20022;-78
2024/03/02 08:19:42;;;;;;;38.88;24.88;;;;;;;;;;4996258;28;20026;-79
2024/03/02 08:22:07;;;;;;;34.38;20.83;;;;;;;;;;4993402;28;20170;-79
2024/03/02 08:24:32;;;;;;;37.47;22.67;;;;;;;;;;4993255;28;20084;-78
2024/03/02 08:26:58;;;;;;;32.78;19.90;;;;;;;;;;4994445;28;20546;-78
2024/03/02 08:29:24;;;;;;;34.85;20.40;;;;;;;;;;4993716;28;20030;-78
2024/03/02 08:31:49;;;;;;;35.80;21.30;;;;;;;;;;4996032;28;20034;-78
2024/03/02 08:34:14;;;;;;;34.15;22.10;;;;;;;;;;4991462;28;20101;-78
2024/03/02 08:36:40;;;;;;;31.52;19.95;;;;;;;;;;4993247;28;20373;-79
2024/03/02 08:39:07;;;;;;;35.00;21.42;;;;;;;;;;4992960;28;20045;-79
2024/03/02 08:41:32;;;;;;;37.33;22.10;;;;;;;;;;4993425;28;20038;-78
2024/03/02 08:43:58;;;;;;;30.52;19.60;;;;;;;;;;4995205;28;20523;-78
2024/03/02 08:46:23;;;;;;;31.75;19.88;;;;;;;;;;4990260;28;20372;-80
2024/03/02 08:48:48;;;;;;;28.33;19.20;;;;;;;;;;4992870;28;20026;-78
2024/03/02 08:51:13;;;;;;;28.83;19.35;;;;;;;;;;4993992;28;20041;-79
2024/03/02 08:53:38;;;;;;;34.83;20.88;;;;;;;;;;4992651;28;20041;-78
2024/03/02 08:56:05;;;;;;;35.63;21.83;;;;;;;;;;4993102;28;20085;-78
2024/03/02 08:58:30;;;;;;;29.08;19.00;;;;;;;;;;4992729;28;20471;-78
2024/03/02 09:00:55;;;;;;;32.25;19.40;;;;;;;;;;4995607;28;20045;-79
2024/03/02 09:03:20;;;;;;;28.10;18.92;;;;;;;;;;4992154;28;20075;-78
2024/03/02 09:05:46;;;;;;;30.33;19.65;;;;;;;;;;4992453;28;20105;-78
2024/03/02 09:08:11;;;;;;;28.63;18.15;;;;;;;;;;4992544;28;20044;-78
2024/03/02 09:10:38;;;;;;;27.98;17.35;;;;;;;;;;4996037;28;20615;-78
2024/03/02 09:13:03;;;;;;;31.65;19.23;;;;;;;;;;4992307;28;20491;-79
2024/03/02 09:15:28;;;;;;;28.65;19.17;;;;;;;;;;4997594;28;20085;-79
2024/03/02 09:17:54;;;;;;;28.67;18.60;;;;;;;;;;4992591;28;20089;-79
2024/03/02 09:20:19;;;;;;;30.50;19.25;;;;;;;;;;4992853;28;20732;-79
2024/03/02 09:22:47;;;;;;;31.27;19.75;;;;;;;;;;4991937;28;20057;-78
2024/03/02 09:25:12;;;;;;;33.42;22.48;;;;;;;;;;4991880;28;20042;-78
2024/03/02 09:27:38;;;;;;;33.22;20.38;;;;;;;;;;4992766;28;20479;-79
2024/03/02 09:30:05;;;;;;;27.73;17.02;;;;;;;;;;4994088;28;20038;-79
2024/03/02 09:32:30;;;;;;;32.50;21.23;;;;;;;;;;4994230;28;20113;-79
2024/03/02 09:34:56;;;;;;;31.05;19.23;;;;;;;;;;4990463;28;20121;-79
2024/03/02 09:37:21;;;;;;;32.83;20.60;;;;;;;;;;4990618;28;20628;-79
2024/03/02 09:39:46;;;;;;;33.72;21.02;;;;;;;;;;4994477;28;20073;-80
2024/03/02 09:42:12;;;;;;;32.45;21.42;;;;;;;;;;4992511;28;20031;-79
2024/03/02 09:44:37;;;;;;;33.53;21.15;;;;;;;;;;4987754;28;20591;-78
2024/03/02 09:47:02;;;;;;;31.50;21.25;;;;;;;;;;4992097;28;20033;-79
2024/03/02 09:49:28;;;;;;;32.03;21.45;;;;;;;;;;4991773;28;20026;-79
2024/03/02 09:51:53;;;;;;;32.93;21.73;;;;;;;;;;4995068;28;20038;-79
2024/03/02 09:54:18;;;;;;;31.95;20.95;;;;;;;;;;4991328;28;20293;-79
2024/03/02 09:56:44;;;;;;;37.73;22.67;;;;;;;;;;4994362;28;20410;-79
2024/03/02 09:59:09;;;;;;;32.20;22.15;;;;;;;;;;4991348;28;20296;-79
2024/03/02 10:01:34;;;;;;;33.17;20.98;;;;;;;;;;4991944;28;20030;-79
2024/03/02 10:03:59;;;;;;;36.60;22.50;;;;;;;;;;4991316;28;20506;-79
2024/03/02 10:06:26;;;;;;;32.30;20.75;;;;;;;;;;4991498;28;20041;-79
2024/03/02 10:08:52;;;;;;;37.55;25.17;;;;;;;;;;4991031;28;20065;-79
2024/03/02 10:11:28;;;;;;;35.22;22.27;;;;;;;;;;4992273;28;20082;-79
2024/03/02 10:14:12;;;;;;;39.15;25.27;;;;;;;;;;4991084;28;20034;-79
2024/03/02 10:16:38;;;;;;;36.03;23.73;;;;;;;;;;4995242;28;20026;-79
2024/03/02 10:19:15;;;;;;;37.00;23.50;;;;;;;;;;4991203;28;20117;-79
2024/03/02 10:21:40;;;;;;;30.95;21.55;;;;;;;;;;4993611;28;20041;-79
2024/03/02 10:24:08;;;;;;;34.30;22.40;;;;;;;;;;4991141;28;20038;-79
2024/03/02 10:26:33;;;;;;;37.00;24.83;;;;;;;;;;4991345;28;20033;-79
2024/03/02 10:28:59;;;;;;;33.38;23.10;;;;;;;;;;4991297;28;20411;-79
2024/03/02 10:31:27;;;;;;;37.97;23.67;;;;;;;;;;4994054;28;20034;-80
2024/03/02 10:33:52;;;;;;;36.40;25.08;;;;;;;;;;4989661;28;20038;-80
2024/03/02 10:36:18;;;;;;;41.27;25.40;;;;;;;;;;4994287;28;20495;-79
2024/03/02 10:38:44;;;;;;;36.10;22.43;;;;;;;;;;4990224;28;21314;-79
2024/03/02 10:41:09;;;;;;;38.30;23.67;;;;;;;;;;4991183;28;20278;-79
2024/03/02 10:43:34;;;;;;;33.42;21.02;;;;;;;;;;4990891;28;20371;-79
2024/03/02 10:45:59;;;;;;;33.78;21.48;;;;;;;;;;4990733;28;20045;-79
2024/03/02 10:48:26;;;;;;;32.50;22.42;;;;;;;;;;4990758;28;20058;-79
2024/03/02 10:50:53;;;;;;;37.22;22.63;;;;;;;;;;4993363;28;20046;-79
2024/03/02 10:53:18;;;;;;;34.30;21.95;;;;;;;;;;4993496;28;20700;-79
2024/03/02 10:55:43;;;;;;;30.27;19.38;;;;;;;;;;4990965;28;20026;-79
2024/03/02 10:58:11;;;;;;;36.35;22.45;;;;;;;;;;4990982;28;20030;-80
2024/03/02 11:00:38;;;;;;;32.17;21.63;;;;;;;;;;4993498;28;20525;-79
2024/03/02 11:03:08;;;;;;;32.13;21.40;;;;;;;;;;4990346;28;20041;-78
2024/03/02 11:05:36;;;;;;;33.65;21.58;;;;;;;;;;4990782;28;20038;-78
2024/03/02 11:08:03;;;;;;;31.45;20.88;;;;;;;;;;4990852;28;20073;-78
2024/03/02 11:10:33;;;;;;;32.97;21.30;;;;;;;;;;4994201;28;20038;-78
2024/03/02 11:13:02;;;;;;;32.10;20.55;;;;;;;;;;4986469;28;20132;-78
2024/03/02 11:15:27;;;;;;;33.22;20.63;;;;;;;;;;4990462;28;20026;-78
2024/03/02 11:17:53;;;;;;;28.15;18.20;;;;;;;;;;4991533;28;20030;-78
2024/03/02 11:20:20;;;;;;;27.90;18.77;;;;;;;;;;4994032;28;20030;-78
2024/03/02 11:22:45;;;;;;;27.25;16.90;;;;;;;;;;4993245;28;20041;-78
2024/03/02 11:25:22;;;;;;;23.43;15.43;;;;;;;;;;4994289;28;20034;-78
2024/03/02 11:27:48;;;;;;;23.02;16.45;;;;;;;;;;4994582;28;20746;-78
2024/03/02 11:30:32;;;;;;;21.70;13.65;;;;;;;;;;4995833;28;20030;-78
2024/03/02 11:32:57;;;;;;;17.38;11.95;;;;;;;;;;4992702;28;20121;-78
2024/03/02 11:35:25;;;;;;;18.00;12.48;;;;;;;;;;4994900;28;20106;-78
2024/03/02 11:37:51;;;;;;;17.90;11.57;;;;;;;;;;4994520;28;20121;-78
2024/03/02 11:40:21;;;;;;;21.73;13.05;;;;;;;;;;4996578;28;20490;-78
2024/03/02 11:42:46;;;;;;;19.33;12.70;;;;;;;;;;4993733;28;20029;-78
2024/03/02 11:45:11;;;;;;;17.90;12.43;;;;;;;;;;4993801;28;20035;-78
2024/03/02 11:47:36;;;;;;;19.33;10.90;;;;;;;;;;4996783;28;20053;-78
2024/03/02 11:50:02;;;;;;;17.33;11.63;;;;;;;;;;4997653;28;20772;-78
2024/03/02 11:52:28;;;;;;;15.07;10.25;;;;;;;;;;4992102;28;20273;-78
2024/03/02 11:54:53;;;;;;;18.73;11.38;;;;;;;;;;4993827;28;20042;-78
2024/03/02 11:57:19;;;;;;;14.85;9.95;;;;;;;;;;4993821;28;20538;-78
2024/03/02 11:59:45;;;;;;;15.73;10.98;;;;;;;;;;4993782;28;20069;-78
2024/03/02 12:02:15;;;;;;;15.23;11.23;;;;;;;;;;4995562;28;20050;-78
2024/03/02 12:04:40;;;;;;;17.98;10.15;;;;;;;;;;4990081;28;20139;-78
2024/03/02 12:07:06;;;;;;;19.35;11.18;;;;;;;;;;4993618;28;20495;-78
2024/03/02 12:09:31;;;;;;;15.35;9.35;;;;;;;;;;4993901;28;20061;-78
2024/03/02 12:12:03;;;;;;;14.70;8.63;;;;;;;;;;4994747;28;20085;-78
2024/03/02 12:14:29;;;;;;;17.08;10.98;;;;;;;;;;4992986;28;20635;-78
2024/03/02 12:16:55;;;;;;;14.35;9.35;;;;;;;;;;4993719;28;20121;-78
2024/03/02 12:19:20;;;;;;;19.00;10.70;;;;;;;;;;4992316;28;20848;-78
2024/03/02 12:21:45;;;;;;;14.47;9.27;;;;;;;;;;4995714;28;20035;-78
2024/03/02 12:24:11;;;;;;;18.30;10.35;;;;;;;;;;4997401;28;20277;-78
2024/03/02 12:26:36;;;;;;;15.50;9.70;;;;;;;;;;4993385;28;20501;-78
2024/03/02 12:29:01;;;;;;;15.50;9.60;;;;;;;;;;4993372;28;20049;-78
2024/03/02 12:31:26;;;;;;;15.93;9.82;;;;;;;;;;4994416;28;20273;-78
2024/03/02 12:33:52;;;;;;;14.23;9.10;;;;;;;;;;4993598;28;20038;-78
2024/03/02 12:36:17;;;;;;;16.10;10.63;;;;;;;;;;4993205;28;20753;-78
2024/03/02 12:38:46;;;;;;;12.03;8.07;;;;;;;;;;4993173;28;20029;-78
2024/03/02 12:41:14;;;;;;;15.27;9.63;;;;;;;;;;4993157;28;20285;-78
2024/03/02 12:43:39;;;;;;;14.65;9.43;;;;;;;;;;4992708;28;20044;-79
2024/03/02 12:46:04;;;;;;;14.73;9.63;;;;;;;;;;4993273;28;20026;-78
2024/03/02 12:48:29;;;;;;;13.85;9.43;;;;;;;;;;4991062;28;20285;-78
2024/03/02 12:50:54;;;;;;;14.27;8.80;;;;;;;;;;4994536;28;20422;-78
2024/03/02 12:53:21;;;;;;;15.10;9.63;;;;;;;;;;4995045;28;20301;-78
2024/03/02 12:55:46;;;;;;;14.25;9.27;;;;;;;;;;4992767;28;20033;-78
2024/03/02 12:58:22;;;;;;;13.35;7.88;;;;;;;;;;4992748;28;20038;-78
2024/03/02 13:00:47;;;;;;;15.57;8.75;;;;;;;;;;5006516;28;20044;-78
2024/03/02 13:03:13;;;;;;;12.95;7.95;;;;;;;;;;4990879;28;20050;-78
2024/03/02 13:05:39;;;;;;;11.70;7.53;;;;;;;;;;4992683;28;20109;-78
2024/03/02 13:08:05;;;;;;;11.85;7.55;;;;;;;;;;4995105;28;20467;-78
2024/03/02 13:10:30;;;;;;;11.00;6.97;;;;;;;;;;4994162;28;20109;-77
2024/03/02 13:12:58;;;;;;;12.00;6.78;;;;;;;;;;4992118;28;20128;-78
2024/03/02 13:15:26;;;;;;;13.88;7.53;;;;;;;;;;4992288;28;20041;-78
2024/03/02 13:17:51;;;;;;;12.80;7.75;;;;;;;;;;4992406;28;20042;-78
2024/03/02 13:20:18;;;;;;;11.07;7.20;;;;;;;;;;4992695;28;20088;-78
2024/03/02 13:22:43;;;;;;;10.63;7.55;;;;;;;;;;5007951;28;20626;-78
2024/03/02 13:25:10;;;;;;;11.73;7.13;;;;;;;;;;4990285;28;20045;-78
2024/03/02 13:27:35;;;;;;;12.82;7.80;;;;;;;;;;4992285;28;20045;-78
2024/03/02 13:30:01;;;;;;;10.88;8.05;;;;;;;;;;4993166;28;20035;-78
2024/03/02 13:32:26;;;;;;;10.68;6.75;;;;;;;;;;4992128;28;20097;-78
2024/03/02 13:34:52;;;;;;;11.70;7.18;;;;;;;;;;4991947;28;20054;-78
2024/03/02 13:37:17;;;;;;;11.17;7.70;;;;;;;;;;4991943;28;20050;-78
2024/03/02 13:39:42;;;;;;;12.45;7.28;;;;;;;;;;4991974;28;20784;-78
2024/03/02 13:42:08;;;;;;;11.88;6.53;;;;;;;;;;4989688;28;20126;-78
2024/03/02 13:44:33;;;;;;;9.80;6.32;;;;;;;;;;4991494;28;20033;-78
2024/03/02 13:47:00;;;;;;;11.27;6.50;;;;;;;;;;4992131;28;20045;-78
2024/03/02 13:49:28;;;;;;;10.52;6.40;;;;;;;;;;4990962;28;20125;-78
2024/03/02 13:51:55;;;;;;;10.25;5.88;;;;;;;;;;4992685;28;20045;-78
2024/03/02 13:54:20;;;;;;;11.27;7.00;;;;;;;;;;4991502;28;20072;-78
2024/03/02 13:56:46;;;;;;;11.27;6.63;;;;;;;;;;4999999;28;20112;-78
2024/03/02 13:59:11;;;;;;;10.23;6.40;;;;;;;;;;4991495;28;20375;-78
2024/03/02 14:01:36;;;;;;;15.27;9.07;;;;;;;;;;4991852;28;20479;-78
2024/03/02 14:04:02;;;;;;;15.20;8.02;;;;;;;;;;4994537;28;20287;-78
2024/03/02 14:06:27;;;;;;;11.73;7.70;;;;;;;;;;4991530;28;20026;-78
2024/03/02 14:08:52;;;;;;;13.57;8.07;;;;;;;;;;4991536;28;20036;-78
2024/03/02 14:11:17;;;;;;;12.23;7.57;;;;;;;;;;4991633;28;20758;-78
2024/03/02 14:13:44;;;;;;;12.30;7.45;;;;;;;;;;4991353;28;20034;-78
2024/03/02 14:16:10;;;;;;;13.98;7.80;;;;;;;;;;4991408;28;20038;-78
2024/03/02 14:18:35;;;;;;;11.18;7.53;;;;;;;;;;5002470;28;20029;-78